createdAt,value
2022-11-26T00:01:20.909Z,101852.38
2022-11-26T00:03:49.056Z,101860.53
2022-11-26T00:06:30.186Z,101855.41
2022-11-26T00:08:56.594Z,101859.66
2022-11-26T00:11:22.912Z,101863.41
2022-11-26T00:13:49.625Z,101868.31
2022-11-26T00:16:16.593Z,101870.41
2022-11-26T00:18:43.473Z,101877.22
2022-11-26T00:21:22.224Z,101878.84
2022-11-26T00:23:49.300Z,101883.88
2022-11-26T00:26:21.791Z,101882.34
2022-11-26T00:28:54.390Z,101884.94
2022-11-26T00:31:21.472Z,101885.25
2022-11-26T00:33:48.139Z,101893.94
2022-11-26T00:36:32.153Z,101888.16
2022-11-26T00:39:21.500Z,101898.81
2022-11-26T00:41:51.048Z,101903.25
2022-11-26T00:44:20.400Z,101902.72
2022-11-26T00:46:47.615Z,101913.84
2022-11-26T00:49:14.525Z,101909.75
2022-11-26T00:51:41.307Z,101920.88
2022-11-26T00:54:12.215Z,101914.50
2022-11-26T00:56:40.605Z,101911.72
2022-11-26T00:59:07.133Z,101913.34
2022-11-26T01:01:33.578Z,101916.13
2022-11-26T01:03:59.955Z,101917.78
2022-11-26T01:06:32.308Z,101923.66
2022-11-26T01:08:58.988Z,101936.97
2022-11-26T01:11:26.058Z,101942.53
2022-11-26T01:13:54.876Z,101945.63
2022-11-26T01:16:27.909Z,101944.47
2022-11-26T01:18:56.447Z,101952.00
2022-11-26T01:21:25.911Z,101956.75
2022-11-26T01:23:52.665Z,101950.38
2022-11-26T01:26:21.661Z,101957.06
2022-11-26T01:28:48.275Z,101957.41
2022-11-26T01:31:17.110Z,101961.28
2022-11-26T01:33:44.706Z,101963.25
2022-11-26T01:36:19.965Z,101967.50
2022-11-26T01:38:46.457Z,101962.25
2022-11-26T01:41:19.479Z,101970.41
2022-11-26T01:43:47.773Z,101973.50
2022-11-26T01:46:19.607Z,101974.44
2022-11-26T01:48:48.597Z,101978.69
2022-11-26T01:51:22.290Z,101980.44
2022-11-26T01:53:54.938Z,101984.16
2022-11-26T01:56:50.093Z,101993.75
2022-11-26T01:59:34.485Z,101990.75
2022-11-26T02:02:01.113Z,101992.94
2022-11-26T02:04:33.073Z,101995.38
2022-11-26T02:06:59.575Z,101985.28
2022-11-26T02:09:28.120Z,101988.56
2022-11-26T02:11:54.859Z,101982.88
2022-11-26T02:14:28.845Z,101984.44
2022-11-26T02:17:04.957Z,101991.34
2022-11-26T02:20:02.268Z,102000.81
2022-11-26T02:22:49.998Z,101997.72
2022-11-26T02:25:35.210Z,102001.22
2022-11-26T02:28:07.449Z,102007.31
2022-11-26T02:30:39.907Z,102003.88
2022-11-26T02:33:16.368Z,102009.16
2022-11-26T02:35:49.588Z,102003.78
2022-11-26T02:38:20.905Z,102001.50
2022-11-26T02:40:47.598Z,102007.56
2022-11-26T02:43:15.946Z,102001.50
2022-11-26T02:45:48.523Z,102003.78
2022-11-26T02:48:21.867Z,102001.31
2022-11-26T02:50:53.065Z,101992.75
2022-11-26T02:53:22.570Z,101998.97
2022-11-26T02:55:53.346Z,101995.97
2022-11-26T02:58:20.589Z,101996.91
2022-11-26T03:00:48.639Z,101994.22
2022-11-26T03:03:26.100Z,101995.78
2022-11-26T03:05:55.914Z,102000.03
2022-11-26T03:08:22.784Z,101994.56
2022-11-26T03:10:49.320Z,101994.69
2022-11-26T03:13:15.799Z,101992.81
2022-11-26T03:15:42.186Z,101982.94
2022-11-26T03:18:08.752Z,101987.75
2022-11-26T03:20:35.252Z,101986.75
2022-11-26T03:23:01.853Z,101986.88
2022-11-26T03:25:28.345Z,101996.13
2022-11-26T03:27:57.938Z,101981.47
2022-11-26T03:30:24.257Z,101989.63
2022-11-26T03:32:50.779Z,101987.78
2022-11-26T03:35:17.314Z,101989.84
2022-11-26T03:37:44.481Z,101988.78
2022-11-26T03:40:11.252Z,101996.91
2022-11-26T03:42:37.828Z,101997.84
2022-11-26T03:45:04.784Z,101997.94
2022-11-26T03:47:31.302Z,101994.09
2022-11-26T03:49:57.690Z,101999.75
2022-11-26T03:52:23.999Z,102000.38
2022-11-26T03:54:50.577Z,102000.13
2022-11-26T03:57:17.316Z,102006.28
2022-11-26T03:59:43.677Z,101998.28
2022-11-26T04:02:10.022Z,102001.66
2022-11-26T04:04:37.092Z,102013.38
2022-11-26T04:07:06.026Z,102025.09
2022-11-26T04:09:36.331Z,102026.81
2022-11-26T04:12:02.721Z,102027.13
2022-11-26T04:14:29.085Z,102035.25
2022-11-26T04:16:55.551Z,102033.06
2022-11-26T04:19:22.040Z,102029.78
2022-11-26T04:21:48.586Z,102033.69
2022-11-26T04:24:15.113Z,102033.97
2022-11-26T04:26:41.472Z,102039.00
2022-11-26T04:29:07.914Z,102046.81
2022-11-26T04:31:34.319Z,102045.47
2022-11-26T04:34:00.684Z,102056.06
2022-11-26T04:36:27.364Z,102059.44
2022-11-26T04:38:53.703Z,102063.34
2022-11-26T04:41:20.079Z,102075.56
2022-11-26T04:43:46.655Z,102072.78
2022-11-26T04:46:13.207Z,102083.91
2022-11-26T04:48:39.621Z,102085.81
2022-11-26T04:51:06.207Z,102086.38
2022-11-26T04:53:32.612Z,102080.81
2022-11-26T04:55:59.060Z,102102.22
2022-11-26T04:58:25.501Z,102097.47
2022-11-26T05:00:52.010Z,102102.47
2022-11-26T05:03:19.070Z,102104.44
2022-11-26T05:05:46.746Z,102103.94
2022-11-26T05:08:13.177Z,102109.47
2022-11-26T05:10:39.498Z,102111.75
2022-11-26T05:13:06.060Z,102123.13
2022-11-26T05:15:32.417Z,102128.44
2022-11-26T05:17:58.925Z,102125.47
2022-11-26T05:20:25.553Z,102125.72
2022-11-26T05:22:52.095Z,102127.47
2022-11-26T05:25:19.032Z,102132.47
2022-11-26T05:27:45.404Z,102133.91
2022-11-26T05:30:12.374Z,102135.31
2022-11-26T05:32:40.983Z,102136.44
2022-11-26T05:35:07.810Z,102137.28
2022-11-26T05:37:34.381Z,102142.81
2022-11-26T05:40:00.925Z,102143.66
2022-11-26T05:42:27.303Z,102144.19
2022-11-26T05:44:53.695Z,102134.19
2022-11-26T05:47:20.223Z,102125.88
2022-11-26T05:49:46.757Z,102141.41
2022-11-26T05:52:13.271Z,102146.13
2022-11-26T05:54:40.183Z,102153.03
2022-11-26T05:57:06.741Z,102151.91
2022-11-26T05:59:34.133Z,102157.16
2022-11-26T06:02:00.628Z,102154.09
2022-11-26T06:04:27.290Z,102156.56
2022-11-26T06:06:53.640Z,102154.63
2022-11-26T06:09:21.292Z,102156.28
2022-11-26T06:11:50.782Z,102164.31
2022-11-26T06:14:17.924Z,102159.03
2022-11-26T06:16:44.360Z,102154.94
2022-11-26T06:19:11.850Z,102164.38
2022-11-26T06:21:38.799Z,102159.13
2022-11-26T06:24:05.898Z,102160.00
2022-11-26T06:26:32.429Z,102163.38
2022-11-26T06:28:58.891Z,102175.06
2022-11-26T06:31:25.518Z,102173.72
2022-11-26T06:33:56.136Z,102182.63
2022-11-26T06:36:23.717Z,102185.41
2022-11-26T06:38:50.395Z,102199.28
2022-11-26T06:41:19.614Z,102194.84
2022-11-26T06:43:45.998Z,102203.19
2022-11-26T06:46:12.466Z,102204.00
2022-11-26T06:48:39.605Z,102200.94
2022-11-26T06:51:06.212Z,102202.56
2022-11-26T06:53:33.021Z,102205.34
2022-11-26T06:56:01.118Z,102217.00
2022-11-26T06:58:27.839Z,102210.63
2022-11-26T07:00:54.524Z,102211.75
2022-11-26T07:03:24.857Z,102212.84
2022-11-26T07:05:52.811Z,102215.94
2022-11-26T07:08:19.166Z,102215.41
2022-11-26T07:10:48.966Z,102212.09
2022-11-26T07:13:16.030Z,102211.25
2022-11-26T07:15:42.602Z,102217.13
2022-11-26T07:18:09.219Z,102208.25
2022-11-26T07:20:36.554Z,102213.78
2022-11-26T07:23:05.196Z,102205.78
2022-11-26T07:25:31.751Z,102217.69
2022-11-26T07:27:58.396Z,102225.50
2022-11-26T07:30:24.877Z,102224.66
2022-11-26T07:32:51.169Z,102221.03
2022-11-26T07:35:17.611Z,102229.38
2022-11-26T07:37:44.692Z,102222.16
2022-11-26T07:40:11.402Z,102222.16
2022-11-26T07:42:37.743Z,102223.81
2022-11-26T07:45:04.553Z,102227.72
2022-11-26T07:47:36.427Z,102222.72
2022-11-26T07:50:03.433Z,102223.53
2022-11-26T07:52:29.976Z,102224.06
2022-11-26T07:54:56.466Z,102229.63
2022-11-26T07:57:25.425Z,102226.56
2022-11-26T07:59:51.936Z,102226.56
2022-11-26T08:02:19.295Z,102229.88
2022-11-26T08:04:45.736Z,102233.16
2022-11-26T08:07:16.212Z,102239.53
2022-11-26T08:09:48.380Z,102240.09
2022-11-26T08:12:14.680Z,102238.66
2022-11-26T08:14:41.185Z,102251.97
2022-11-26T08:17:07.774Z,102250.25
2022-11-26T08:19:35.465Z,102254.09
2022-11-26T08:22:01.865Z,102250.97
2022-11-26T08:24:28.295Z,102252.28
2022-11-26T08:26:54.799Z,102253.28
2022-11-26T08:29:21.141Z,102251.22
2022-11-26T08:31:47.920Z,102254.69
2022-11-26T08:34:15.838Z,102254.53
2022-11-26T08:36:42.384Z,102258.00
2022-11-26T08:39:12.531Z,102260.41
2022-11-26T08:41:38.886Z,102261.06
2022-11-26T08:44:06.942Z,102262.88
2022-11-26T08:46:34.667Z,102263.28
2022-11-26T08:49:01.034Z,102259.19
2022-11-26T08:51:27.427Z,102261.00
2022-11-26T08:53:53.783Z,102258.88
2022-11-26T08:56:20.100Z,102261.78
2022-11-26T08:58:49.359Z,102262.44
2022-11-26T09:01:21.415Z,102255.88
2022-11-26T09:03:49.909Z,102259.59
2022-11-26T09:06:16.973Z,102255.81
2022-11-26T09:09:18.811Z,102262.31
2022-11-26T09:11:54.151Z,102264.13
2022-11-26T09:14:27.207Z,102270.63
2022-11-26T09:16:54.890Z,102269.06
2022-11-26T09:19:22.171Z,102271.13
2022-11-26T09:21:48.578Z,102273.22
2022-11-26T09:24:16.750Z,102264.44
2022-11-26T09:26:43.583Z,102265.66
2022-11-26T09:29:15.080Z,102275.56
2022-11-26T09:32:00.819Z,102283.72
2022-11-26T09:34:28.370Z,102286.91
2022-11-26T09:36:54.760Z,102288.13
2022-11-26T09:39:21.049Z,102289.66
2022-11-26T09:42:06.333Z,102293.78
2022-11-26T09:44:32.624Z,102291.09
2022-11-26T09:47:22.694Z,102296.34
2022-11-26T09:50:06.123Z,102301.81
2022-11-26T09:52:45.149Z,102306.94
2022-11-26T09:55:18.139Z,102304.56
2022-11-26T09:58:27.889Z,102302.47
2022-11-26T10:00:56.975Z,102301.44
2022-11-26T10:03:31.991Z,102311.97
2022-11-26T10:06:10.268Z,102305.75
2022-11-26T10:09:18.957Z,102303.97
2022-11-26T10:12:24.687Z,102303.03
2022-11-26T10:15:17.355Z,102306.50
2022-11-26T10:18:20.051Z,102301.63
2022-11-26T10:21:01.034Z,102306.78
2022-11-26T10:23:34.198Z,102305.16
2022-11-26T10:26:15.196Z,102297.50
2022-11-26T10:28:46.956Z,102293.94
2022-11-26T10:31:33.272Z,102303.50
2022-11-26T10:34:09.428Z,102299.09
2022-11-26T10:36:41.483Z,102304.25
2022-11-26T10:39:15.775Z,102297.16
2022-11-26T10:41:42.750Z,102300.34
2022-11-26T10:44:40.778Z,102302.81
2022-11-26T10:47:19.744Z,102307.63
2022-11-26T10:49:46.187Z,102297.59
2022-11-26T10:52:19.460Z,102298.41
2022-11-26T10:54:46.172Z,102292.19
2022-11-26T10:57:17.990Z,102298.59
2022-11-26T10:59:44.322Z,102289.63
2022-11-26T11:02:19.843Z,102297.16
2022-11-26T11:04:50.877Z,102300.16
2022-11-26T11:07:41.117Z,102291.44
2022-11-26T11:10:11.122Z,102293.28
2022-11-26T11:12:41.715Z,102300.69
2022-11-26T11:15:29.545Z,102298.38
2022-11-26T11:18:14.010Z,102288.19
2022-11-26T11:20:43.200Z,102276.84
2022-11-26T11:23:09.773Z,102285.41
2022-11-26T11:25:39.891Z,102291.50
2022-11-26T11:28:17.888Z,102280.50
2022-11-26T11:30:46.246Z,102280.66
2022-11-26T11:33:21.956Z,102280.00
2022-11-26T11:36:16.304Z,102280.16
2022-11-26T11:38:55.756Z,102282.47
2022-11-26T11:41:27.384Z,102276.56
2022-11-26T11:44:06.186Z,102283.47
2022-11-26T11:46:46.197Z,102277.56
2022-11-26T11:49:27.280Z,102269.31
2022-11-26T11:52:15.384Z,102267.03
2022-11-26T11:55:14.475Z,102263.56
2022-11-26T11:57:49.822Z,102268.50
2022-11-26T12:00:27.025Z,102268.16
2022-11-26T12:03:30.503Z,102269.50
2022-11-26T12:06:41.785Z,102266.88
2022-11-26T12:09:36.515Z,102273.13
2022-11-26T12:12:24.925Z,102271.63
2022-11-26T12:14:59.441Z,102277.22
2022-11-26T12:18:00.739Z,102272.63
2022-11-26T12:20:39.850Z,102282.00
2022-11-26T12:23:18.792Z,102267.66
2022-11-26T12:25:53.292Z,102262.22
2022-11-26T12:28:51.313Z,102264.53
2022-11-26T12:31:31.189Z,102267.00
2022-11-26T12:34:12.959Z,102263.38
2022-11-26T12:36:43.562Z,102255.97
2022-11-26T12:39:20.100Z,102267.81
2022-11-26T12:41:53.965Z,102254.66
2022-11-26T12:44:46.547Z,102263.69
2022-11-26T12:47:37.884Z,102263.03
2022-11-26T12:50:17.532Z,102259.63
2022-11-26T12:53:12.933Z,102270.81
2022-11-26T12:55:48.930Z,102274.94
2022-11-26T12:58:44.832Z,102272.59
2022-11-26T13:01:11.732Z,102264.88
2022-11-26T13:03:38.645Z,102259.75
2022-11-26T13:06:17.232Z,102263.88
2022-11-26T13:09:05.471Z,102261.56
2022-11-26T13:12:09.707Z,102262.03
2022-11-26T13:15:06.844Z,102268.63
2022-11-26T13:17:45.015Z,102258.72
2022-11-26T13:20:43.246Z,102257.56
2022-11-26T13:23:27.423Z,102261.34
2022-11-26T13:26:31.240Z,102257.72
2022-11-26T13:29:22.240Z,102258.56
2022-11-26T13:32:14.675Z,102264.16
2022-11-26T13:35:00.891Z,102256.91
2022-11-26T13:37:56.654Z,102259.72
2022-11-26T13:40:44.179Z,102256.09
2022-11-26T13:43:34.526Z,102245.34
2022-11-26T13:46:09.200Z,102246.84
2022-11-26T13:48:53.646Z,102237.47
2022-11-26T13:51:46.351Z,102240.59
2022-11-26T13:54:23.145Z,102243.09
2022-11-26T13:56:55.646Z,102239.47
2022-11-26T13:59:28.361Z,102247.88
2022-11-26T14:01:55.786Z,102235.34
2022-11-26T14:04:23.488Z,102238.47
2022-11-26T14:07:05.188Z,102237.81
2022-11-26T14:09:47.382Z,102234.19
2022-11-26T14:12:15.940Z,102232.22
2022-11-26T14:14:43.137Z,102226.59
2022-11-26T14:17:22.879Z,102219.72
2022-11-26T14:19:49.182Z,102226.47
2022-11-26T14:22:21.541Z,102221.06
2022-11-26T14:24:48.475Z,102228.63
2022-11-26T14:27:15.412Z,102222.88
2022-11-26T14:29:44.091Z,102217.94
2022-11-26T14:32:19.139Z,102223.66
2022-11-26T14:34:55.708Z,102222.38
2022-11-26T14:37:25.911Z,102220.22
2022-11-26T14:40:19.033Z,102222.38
2022-11-26T14:42:45.388Z,102215.97
2022-11-26T14:45:21.253Z,102211.66
2022-11-26T14:47:51.264Z,102204.78
2022-11-26T14:50:21.701Z,102211.84
2022-11-26T14:52:57.565Z,102222.09
2022-11-26T14:55:30.115Z,102214.34
2022-11-26T14:58:06.165Z,102212.69
2022-11-26T15:00:36.500Z,102206.94
2022-11-26T15:03:04.200Z,102204.47
2022-11-26T15:05:33.230Z,102205.47
2022-11-26T15:08:05.097Z,102208.91
2022-11-26T15:10:58.583Z,102208.25
2022-11-26T15:13:36.919Z,102207.44
2022-11-26T15:16:28.215Z,102198.88
2022-11-26T15:18:55.482Z,102201.31
2022-11-26T15:21:24.235Z,102211.56
2022-11-26T15:23:53.751Z,102211.72
2022-11-26T15:26:25.464Z,102209.56
2022-11-26T15:28:52.009Z,102223.03
2022-11-26T15:31:21.374Z,102218.94
2022-11-26T15:33:48.664Z,102220.41
2022-11-26T15:36:17.840Z,102225.53
2022-11-26T15:39:08.974Z,102227.66
2022-11-26T15:41:42.505Z,102220.44
2022-11-26T15:44:28.646Z,102219.44
2022-11-26T15:46:57.228Z,102214.66
2022-11-26T15:49:38.966Z,102210.38
2022-11-26T15:52:13.181Z,102214.31
2022-11-26T15:55:10.994Z,102222.69
2022-11-26T15:57:33.672Z,102223.03
2022-11-26T16:00:04.467Z,102216.94
2022-11-26T16:02:32.147Z,102215.63
2022-11-26T16:05:00.660Z,102216.28
2022-11-26T16:07:32.728Z,102219.72
2022-11-26T16:10:24.739Z,102226.25
2022-11-26T16:13:16.743Z,102221.00
2022-11-26T16:16:05.409Z,102229.19
2022-11-26T16:18:48.107Z,102228.19
2022-11-26T16:21:19.653Z,102226.56
2022-11-26T16:24:06.049Z,102230.31
2022-11-26T16:27:02.771Z,102226.53
2022-11-26T16:29:30.232Z,102224.56
2022-11-26T16:31:56.826Z,102229.97
2022-11-26T16:34:25.951Z,102227.00
2022-11-26T16:37:01.064Z,102227.97
2022-11-26T16:39:30.146Z,102226.00
2022-11-26T16:41:56.966Z,102225.47
2022-11-26T16:44:23.384Z,102223.84
2022-11-26T16:46:51.899Z,102230.91
2022-11-26T16:49:18.417Z,102228.13
2022-11-26T16:51:44.904Z,102222.34
2022-11-26T16:54:15.584Z,102217.91
2022-11-26T16:56:41.943Z,102217.41
2022-11-26T16:59:21.537Z,102219.19
2022-11-26T17:01:48.150Z,102209.69
2022-11-26T17:04:14.677Z,102213.91
2022-11-26T17:06:41.772Z,102219.03
2022-11-26T17:09:20.588Z,102220.81
2022-11-26T17:11:46.937Z,102218.84
2022-11-26T17:14:13.386Z,102219.31
2022-11-26T17:16:40.681Z,102218.34
2022-11-26T17:19:12.415Z,102218.44
2022-11-26T17:21:38.860Z,102223.22
2022-11-26T17:24:05.417Z,102221.38
2022-11-26T17:26:31.829Z,102225.66
2022-11-26T17:28:58.183Z,102235.50
2022-11-26T17:31:24.824Z,102228.06
2022-11-26T17:33:51.550Z,102229.56
2022-11-26T17:36:20.845Z,102231.66
2022-11-26T17:38:47.998Z,102229.50
2022-11-26T17:41:15.648Z,102227.31
2022-11-26T17:43:42.609Z,102230.78
2022-11-26T17:46:18.107Z,102232.88
2022-11-26T17:48:44.865Z,102227.91
2022-11-26T17:51:14.290Z,102230.03
2022-11-26T17:53:41.694Z,102230.66
2022-11-26T17:56:19.699Z,102235.50
2022-11-26T17:58:47.175Z,102231.06
2022-11-26T18:01:15.653Z,102218.56
2022-11-26T18:03:42.900Z,102219.72
2022-11-26T18:06:15.907Z,102218.06
2022-11-26T18:08:42.333Z,102210.03
2022-11-26T18:11:08.709Z,102207.38
2022-11-26T18:13:35.075Z,102205.19
2022-11-26T18:16:01.698Z,102203.84
2022-11-26T18:18:28.355Z,102203.69
2022-11-26T18:20:55.135Z,102203.47
2022-11-26T18:23:22.869Z,102204.09
2022-11-26T18:25:49.208Z,102207.53
2022-11-26T18:28:19.422Z,102199.28
2022-11-26T18:30:46.286Z,102199.09
2022-11-26T18:33:14.030Z,102195.59
2022-11-26T18:35:42.049Z,102199.63
2022-11-26T18:38:11.300Z,102200.56
2022-11-26T18:40:37.922Z,102198.75
2022-11-26T18:43:04.869Z,102195.22
2022-11-26T18:45:32.615Z,102191.75
2022-11-26T18:48:00.419Z,102198.78
2022-11-26T18:50:27.096Z,102193.00
2022-11-26T18:52:55.875Z,102191.16
2022-11-26T18:55:23.656Z,102186.50
2022-11-26T18:57:51.097Z,102182.41
2022-11-26T19:00:19.694Z,102172.19
2022-11-26T19:02:46.166Z,102177.56
2022-11-26T19:05:12.710Z,102175.91
2022-11-26T19:07:39.536Z,102176.84
2022-11-26T19:10:06.773Z,102187.78
2022-11-26T19:12:33.275Z,102180.03
2022-11-26T19:14:59.621Z,102181.78
2022-11-26T19:17:26.274Z,102180.78
2022-11-26T19:19:52.655Z,102178.59
2022-11-26T19:22:19.021Z,102178.34
2022-11-26T19:24:45.393Z,102172.59
2022-11-26T19:27:13.202Z,102174.34
2022-11-26T19:29:39.841Z,102178.25
2022-11-26T19:32:06.596Z,102176.09
2022-11-26T19:34:32.881Z,102179.50
2022-11-26T19:36:59.321Z,102172.59
2022-11-26T19:39:25.675Z,102176.81
2022-11-26T19:41:52.086Z,102176.31
2022-11-26T19:44:18.627Z,102174.63
2022-11-26T19:46:47.698Z,102170.53
2022-11-26T19:49:14.490Z,102173.63
2022-11-26T19:51:40.915Z,102186.19
2022-11-26T19:54:07.567Z,102187.63
2022-11-26T19:56:35.153Z,102191.53
2022-11-26T19:59:02.182Z,102177.94
2022-11-26T20:01:31.561Z,102181.31
2022-11-26T20:04:04.722Z,102180.00
2022-11-26T20:06:33.266Z,102178.34
2022-11-26T20:08:59.779Z,102180.31
2022-11-26T20:11:27.744Z,102184.72
2022-11-26T20:13:54.763Z,102181.72
2022-11-26T20:16:27.612Z,102171.19
2022-11-26T20:18:54.808Z,102164.31
2022-11-26T20:21:27.056Z,102160.47
2022-11-26T20:23:55.063Z,102157.19
2022-11-26T20:26:25.462Z,102164.72
2022-11-26T20:28:53.139Z,102165.81
2022-11-26T20:31:23.550Z,102175.63
2022-11-26T20:33:52.465Z,102170.66
2022-11-26T20:36:21.199Z,102177.88
2022-11-26T20:38:54.412Z,102175.41
2022-11-26T20:41:22.011Z,102176.84
2022-11-26T20:43:52.367Z,102190.75
2022-11-26T20:46:22.262Z,102193.00
2022-11-26T20:48:49.129Z,102206.41
2022-11-26T20:51:17.735Z,102211.44
2022-11-26T20:53:51.651Z,102214.22
2022-11-26T20:56:20.726Z,102212.25
2022-11-26T20:58:47.583Z,102207.81
2022-11-26T21:01:25.936Z,102206.28
2022-11-26T21:03:52.549Z,102208.75
2022-11-26T21:06:25.869Z,102209.56
2022-11-26T21:08:57.426Z,102207.09
2022-11-26T21:11:23.857Z,102204.63
2022-11-26T21:13:50.381Z,102209.66
2022-11-26T21:16:16.933Z,102214.38
2022-11-26T21:18:43.991Z,102215.22
2022-11-26T21:21:17.377Z,102219.94
2022-11-26T21:23:44.971Z,102214.94
2022-11-26T21:26:15.992Z,102222.97
2022-11-26T21:28:42.545Z,102217.09
2022-11-26T21:31:16.986Z,102217.09
2022-11-26T21:33:44.875Z,102218.13
2022-11-26T21:36:16.508Z,102216.72
2022-11-26T21:38:48.299Z,102213.63
2022-11-26T21:41:16.069Z,102213.53
2022-11-26T21:43:44.035Z,102204.03
2022-11-26T21:46:14.717Z,102214.56
2022-11-26T21:48:41.327Z,102201.16
2022-11-26T21:51:10.579Z,102191.69
2022-11-26T21:53:37.011Z,102193.88
2022-11-26T21:56:14.853Z,102205.81
2022-11-26T21:58:42.021Z,102194.09
2022-11-26T22:01:18.592Z,102180.19
2022-11-26T22:03:48.277Z,102178.44
2022-11-26T22:06:16.228Z,102172.56
2022-11-26T22:08:43.100Z,102172.25
2022-11-26T22:11:21.568Z,102163.59
2022-11-26T22:13:49.511Z,102156.59
2022-11-26T22:16:18.130Z,102151.22
2022-11-26T22:18:45.989Z,102140.94
2022-11-26T22:21:18.490Z,102132.06
2022-11-26T22:23:45.899Z,102138.13
2022-11-26T22:26:14.846Z,102122.88
2022-11-26T22:28:41.342Z,102124.22
2022-11-26T22:31:29.230Z,102111.72
2022-11-26T22:34:05.010Z,102113.91
2022-11-26T22:36:32.080Z,102106.06
2022-11-26T22:38:59.364Z,102099.69
2022-11-26T22:41:26.554Z,102094.09
2022-11-26T22:43:53.136Z,102095.78
2022-11-26T22:46:21.986Z,102091.66
2022-11-26T22:48:58.122Z,102091.97
2022-11-26T22:51:26.641Z,102092.78
2022-11-26T22:53:54.181Z,102090.00
2022-11-26T22:56:21.615Z,102095.56
2022-11-26T22:58:48.691Z,102093.41
2022-11-26T23:01:21.184Z,102093.81
2022-11-26T23:03:48.462Z,102098.84
2022-11-26T23:06:17.258Z,102101.72
2022-11-26T23:08:44.986Z,102096.81
2022-11-26T23:11:16.567Z,102095.53
2022-11-26T23:13:44.959Z,102093.69
2022-11-26T23:16:12.386Z,102096.25
2022-11-26T23:18:39.065Z,102087.72
2022-11-26T23:21:09.121Z,102091.69
2022-11-26T23:23:37.154Z,102081.22
2022-11-26T23:26:05.580Z,102078.22
2022-11-26T23:28:34.008Z,102074.38
2022-11-26T23:31:01.942Z,102058.63
2022-11-26T23:33:28.838Z,102049.78
2022-11-26T23:35:56.363Z,102049.88
2022-11-26T23:38:23.686Z,102053.56
2022-11-26T23:40:57.895Z,102052.28
2022-11-26T23:43:25.302Z,102048.47
2022-11-26T23:46:06.755Z,102050.00
2022-11-26T23:48:33.741Z,102042.25
2022-11-26T23:51:00.901Z,102036.25
2022-11-26T23:53:27.721Z,102028.00
2022-11-26T23:55:54.165Z,102031.16
2022-11-26T23:58:20.452Z,102033.75
